sensor_id;sensor_type;location;lat;lon;timestamp;temperature;humidity
3638;DHT22;1835;50.068;8.154;2023-03-31T00:01:07;11.00;99.90
3638;DHT22;1835;50.068;8.154;2023-03-31T00:03:35;10.90;99.90
3638;DHT22;1835;50.068;8.154;2023-03-31T00:06:04;11.00;99.90
3638;DHT22;1835;50.068;8.154;2023-03-31T00:08:34;11.20;99.90
3638;DHT22;1835;50.068;8.154;2023-03-31T00:11:04;11.50;99.90
3638;DHT22;1835;50.068;8.154;2023-03-31T00:13:34;11.30;99.90
3638;DHT22;1835;50.068;8.154;2023-03-31T00:16:04;11.10;99.90
3638;DHT22;1835;50.068;8.154;2023-03-31T00:18:34;11.00;99.90
3638;DHT22;1835;50.068;8.154;2023-03-31T00:21:07;10.80;99.90
3638;DHT22;1835;50.068;8.154;2023-03-31T00:23:41;10.80;99.90
3638;DHT22;1835;50.068;8.154;2023-03-31T00:26:09;10.70;99.90
3638;DHT22;1835;50.068;8.154;2023-03-31T00:28:37;10.70;99.90
3638;DHT22;1835;50.068;8.154;2023-03-31T00:31:05;10.60;99.90
3638;DHT22;1835;50.068;8.154;2023-03-31T00:33:33;10.80;99.90
3638;DHT22;1835;50.068;8.154;2023-03-31T00:36:01;10.80;99.90
3638;DHT22;1835;50.068;8.154;2023-03-31T00:38:32;10.70;99.90
3638;DHT22;1835;50.068;8.154;2023-03-31T00:41:03;10.60;99.90
3638;DHT22;1835;50.068;8.154;2023-03-31T00:43:34;10.70;99.90
3638;DHT22;1835;50.068;8.154;2023-03-31T00:46:12;10.80;99.90
3638;DHT22;1835;50.068;8.154;2023-03-31T00:48:47;10.80;99.90
3638;DHT22;1835;50.068;8.154;2023-03-31T00:51:19;10.90;99.90
3638;DHT22;1835;50.068;8.154;2023-03-31T00:53:51;10.70;99.90
3638;DHT22;1835;50.068;8.154;2023-03-31T00:56:25;10.70;99.90
3638;DHT22;1835;50.068;8.154;2023-03-31T00:58:56;10.80;99.90
3638;DHT22;1835;50.068;8.154;2023-03-31T01:01:30;10.80;99.90
3638;DHT22;1835;50.068;8.154;2023-03-31T01:03:58;10.80;99.90
3638;DHT22;1835;50.068;8.154;2023-03-31T01:06:26;11.00;99.90
3638;DHT22;1835;50.068;8.154;2023-03-31T01:08:56;10.90;99.90
3638;DHT22;1835;50.068;8.154;2023-03-31T01:11:26;10.80;99.90
3638;DHT22;1835;50.068;8.154;2023-03-31T01:13:56;10.90;99.90
3638;DHT22;1835;50.068;8.154;2023-03-31T01:16:24;10.80;99.90
3638;DHT22;1835;50.068;8.154;2023-03-31T01:18:52;10.70;99.90
3638;DHT22;1835;50.068;8.154;2023-03-31T01:21:58;10.70;99.90
3638;DHT22;1835;50.068;8.154;2023-03-31T01:25:04;10.50;99.90
3638;DHT22;1835;50.068;8.154;2023-03-31T01:28:04;10.50;99.90
3638;DHT22;1835;50.068;8.154;2023-03-31T01:37:44;10.40;99.90
3638;DHT22;1835;50.068;8.154;2023-03-31T01:40:38;10.30;99.90
3638;DHT22;1835;50.068;8.154;2023-03-31T01:43:17;10.40;99.90
3638;DHT22;1835;50.068;8.154;2023-03-31T01:45:53;10.40;99.90
3638;DHT22;1835;50.068;8.154;2023-03-31T01:48:34;10.30;99.90
3638;DHT22;1835;50.068;8.154;2023-03-31T01:51:14;10.20;99.90
3638;DHT22;1835;50.068;8.154;2023-03-31T01:53:48;10.20;99.90
3638;DHT22;1835;50.068;8.154;2023-03-31T01:56:23;10.10;99.90
3638;DHT22;1835;50.068;8.154;2023-03-31T01:58:55;10.20;99.90
3638;DHT22;1835;50.068;8.154;2023-03-31T02:01:27;10.20;99.90
3638;DHT22;1835;50.068;8.154;2023-03-31T02:04:03;10.20;99.90
3638;DHT22;1835;50.068;8.154;2023-03-31T02:06:37;10.40;99.90
3638;DHT22;1835;50.068;8.154;2023-03-31T02:09:10;10.10;99.90
3638;DHT22;1835;50.068;8.154;2023-03-31T02:11:42;10.10;99.90
3638;DHT22;1835;50.068;8.154;2023-03-31T02:14:14;10.30;99.90
3638;DHT22;1835;50.068;8.154;2023-03-31T02:16:45;10.20;99.90
3638;DHT22;1835;50.068;8.154;2023-03-31T02:19:17;10.30;99.90
3638;DHT22;1835;50.068;8.154;2023-03-31T02:21:47;10.30;99.90
3638;DHT22;1835;50.068;8.154;2023-03-31T02:24:18;10.30;99.90
3638;DHT22;1835;50.068;8.154;2023-03-31T02:26:52;10.30;99.90
3638;DHT22;1835;50.068;8.154;2023-03-31T02:29:22;10.20;99.90
3638;DHT22;1835;50.068;8.154;2023-03-31T02:31:55;10.00;99.90
3638;DHT22;1835;50.068;8.154;2023-03-31T02:34:27;10.00;99.90
3638;DHT22;1835;50.068;8.154;2023-03-31T02:36:55;10.10;99.90
3638;DHT22;1835;50.068;8.154;2023-03-31T02:39:26;10.30;99.90
3638;DHT22;1835;50.068;8.154;2023-03-31T02:41:58;10.20;99.90
3638;DHT22;1835;50.068;8.154;2023-03-31T02:44:32;10.40;99.90
3638;DHT22;1835;50.068;8.154;2023-03-31T02:47:01;10.30;99.90
3638;DHT22;1835;50.068;8.154;2023-03-31T02:49:29;10.30;99.90
3638;DHT22;1835;50.068;8.154;2023-03-31T02:52:11;10.30;99.90
3638;DHT22;1835;50.068;8.154;2023-03-31T02:55:09;10.40;99.90
3638;DHT22;1835;50.068;8.154;2023-03-31T02:58:13;10.20;99.90
3638;DHT22;1835;50.068;8.154;2023-03-31T03:01:11;10.10;99.90
3638;DHT22;1835;50.068;8.154;2023-03-31T03:03:55;10.10;99.90
3638;DHT22;1835;50.068;8.154;2023-03-31T03:06:37;10.30;99.90
3638;DHT22;1835;50.068;8.154;2023-03-31T03:09:22;10.30;99.90
3638;DHT22;1835;50.068;8.154;2023-03-31T03:12:09;10.20;99.90
3638;DHT22;1835;50.068;8.154;2023-03-31T03:14:46;10.00;99.90
3638;DHT22;1835;50.068;8.154;2023-03-31T03:17:21;9.90;99.90
3638;DHT22;1835;50.068;8.154;2023-03-31T03:19:53;9.80;99.90
3638;DHT22;1835;50.068;8.154;2023-03-31T03:22:22;9.80;99.90
3638;DHT22;1835;50.068;8.154;2023-03-31T03:24:50;10.10;99.90
3638;DHT22;1835;50.068;8.154;2023-03-31T03:27:19;10.10;99.90
3638;DHT22;1835;50.068;8.154;2023-03-31T03:29:49;10.10;99.90
3638;DHT22;1835;50.068;8.154;2023-03-31T03:32:17;10.40;99.90
3638;DHT22;1835;50.068;8.154;2023-03-31T03:34:45;10.20;99.90
3638;DHT22;1835;50.068;8.154;2023-03-31T03:37:13;10.20;99.90
3638;DHT22;1835;50.068;8.154;2023-03-31T03:39:41;10.00;99.90
3638;DHT22;1835;50.068;8.154;2023-03-31T03:42:09;10.10;99.90
3638;DHT22;1835;50.068;8.154;2023-03-31T03:44:37;10.20;99.90
3638;DHT22;1835;50.068;8.154;2023-03-31T03:47:07;10.40;99.90
3638;DHT22;1835;50.068;8.154;2023-03-31T03:49:38;10.20;99.90
3638;DHT22;1835;50.068;8.154;2023-03-31T03:52:06;10.40;99.90
3638;DHT22;1835;50.068;8.154;2023-03-31T03:54:35;10.50;99.90
3638;DHT22;1835;50.068;8.154;2023-03-31T03:57:03;10.50;99.90
3638;DHT22;1835;50.068;8.154;2023-03-31T03:59:32;10.20;99.90
3638;DHT22;1835;50.068;8.154;2023-03-31T04:02:00;10.10;99.90
3638;DHT22;1835;50.068;8.154;2023-03-31T04:04:29;10.10;99.90
3638;DHT22;1835;50.068;8.154;2023-03-31T04:06:57;10.10;99.90
3638;DHT22;1835;50.068;8.154;2023-03-31T04:09:26;10.20;99.90
3638;DHT22;1835;50.068;8.154;2023-03-31T04:11:55;10.40;99.90
3638;DHT22;1835;50.068;8.154;2023-03-31T04:14:23;10.30;99.90
3638;DHT22;1835;50.068;8.154;2023-03-31T04:16:51;10.10;99.90
3638;DHT22;1835;50.068;8.154;2023-03-31T04:19:22;10.00;99.90
3638;DHT22;1835;50.068;8.154;2023-03-31T04:21:52;9.80;99.90
3638;DHT22;1835;50.068;8.154;2023-03-31T04:24:30;9.80;99.90
3638;DHT22;1835;50.068;8.154;2023-03-31T04:26:59;10.00;99.90
3638;DHT22;1835;50.068;8.154;2023-03-31T04:29:28;9.90;99.90
3638;DHT22;1835;50.068;8.154;2023-03-31T04:31:59;9.90;99.90
3638;DHT22;1835;50.068;8.154;2023-03-31T04:34:28;10.00;99.90
3638;DHT22;1835;50.068;8.154;2023-03-31T04:37:03;10.10;99.90
3638;DHT22;1835;50.068;8.154;2023-03-31T04:39:31;10.20;99.90
3638;DHT22;1835;50.068;8.154;2023-03-31T04:41:59;10.10;99.90
3638;DHT22;1835;50.068;8.154;2023-03-31T04:44:29;10.20;99.90
3638;DHT22;1835;50.068;8.154;2023-03-31T04:46:57;10.30;99.90
3638;DHT22;1835;50.068;8.154;2023-03-31T04:49:28;10.10;99.90
3638;DHT22;1835;50.068;8.154;2023-03-31T04:51:59;10.10;99.90
3638;DHT22;1835;50.068;8.154;2023-03-31T04:54:28;10.10;99.90
3638;DHT22;1835;50.068;8.154;2023-03-31T04:56:56;10.00;99.90
3638;DHT22;1835;50.068;8.154;2023-03-31T04:59:24;10.00;99.90
3638;DHT22;1835;50.068;8.154;2023-03-31T05:01:52;9.90;99.90
3638;DHT22;1835;50.068;8.154;2023-03-31T05:04:20;10.00;99.90
3638;DHT22;1835;50.068;8.154;2023-03-31T05:06:48;10.00;99.90
3638;DHT22;1835;50.068;8.154;2023-03-31T05:09:16;10.10;99.90
3638;DHT22;1835;50.068;8.154;2023-03-31T05:11:47;10.10;99.90
3638;DHT22;1835;50.068;8.154;2023-03-31T05:14:15;10.00;99.90
3638;DHT22;1835;50.068;8.154;2023-03-31T05:16:43;9.90;99.90
3638;DHT22;1835;50.068;8.154;2023-03-31T05:19:12;9.90;99.90
3638;DHT22;1835;50.068;8.154;2023-03-31T05:21:40;9.80;99.90
3638;DHT22;1835;50.068;8.154;2023-03-31T05:24:08;9.80;99.90
3638;DHT22;1835;50.068;8.154;2023-03-31T05:26:36;9.80;99.90
3638;DHT22;1835;50.068;8.154;2023-03-31T05:29:06;10.00;99.90
3638;DHT22;1835;50.068;8.154;2023-03-31T05:31:34;10.00;99.90
3638;DHT22;1835;50.068;8.154;2023-03-31T05:34:02;10.00;99.90
3638;DHT22;1835;50.068;8.154;2023-03-31T05:36:30;10.00;99.90
3638;DHT22;1835;50.068;8.154;2023-03-31T05:38:58;9.90;99.90
3638;DHT22;1835;50.068;8.154;2023-03-31T05:41:26;10.00;99.90
3638;DHT22;1835;50.068;8.154;2023-03-31T05:43:55;10.00;99.90
3638;DHT22;1835;50.068;8.154;2023-03-31T05:46:24;9.90;99.90
3638;DHT22;1835;50.068;8.154;2023-03-31T05:48:53;9.90;99.90
3638;DHT22;1835;50.068;8.154;2023-03-31T05:51:22;10.00;99.90
3638;DHT22;1835;50.068;8.154;2023-03-31T05:53:50;9.90;99.90
3638;DHT22;1835;50.068;8.154;2023-03-31T05:56:18;10.10;99.90
3638;DHT22;1835;50.068;8.154;2023-03-31T05:58:47;10.20;99.90
3638;DHT22;1835;50.068;8.154;2023-03-31T06:01:16;10.40;99.90
3638;DHT22;1835;50.068;8.154;2023-03-31T06:03:47;10.40;99.90
3638;DHT22;1835;50.068;8.154;2023-03-31T06:06:16;10.40;99.90
3638;DHT22;1835;50.068;8.154;2023-03-31T06:08:46;10.40;99.90
3638;DHT22;1835;50.068;8.154;2023-03-31T06:11:16;10.40;99.90
3638;DHT22;1835;50.068;8.154;2023-03-31T06:13:46;10.40;99.90
3638;DHT22;1835;50.068;8.154;2023-03-31T06:16:15;10.30;99.90
3638;DHT22;1835;50.068;8.154;2023-03-31T06:18:44;10.30;99.90
3638;DHT22;1835;50.068;8.154;2023-03-31T06:21:15;10.50;99.90
3638;DHT22;1835;50.068;8.154;2023-03-31T06:23:45;10.40;99.90
3638;DHT22;1835;50.068;8.154;2023-03-31T06:26:15;10.40;99.90
3638;DHT22;1835;50.068;8.154;2023-03-31T06:28:44;10.50;99.90
3638;DHT22;1835;50.068;8.154;2023-03-31T06:31:15;10.50;99.90
3638;DHT22;1835;50.068;8.154;2023-03-31T06:33:44;10.40;99.90
3638;DHT22;1835;50.068;8.154;2023-03-31T06:36:16;10.60;99.90
3638;DHT22;1835;50.068;8.154;2023-03-31T06:38:45;10.70;99.90
3638;DHT22;1835;50.068;8.154;2023-03-31T06:41:15;10.70;99.90
3638;DHT22;1835;50.068;8.154;2023-03-31T06:43:43;10.60;99.90
3638;DHT22;1835;50.068;8.154;2023-03-31T06:46:12;10.80;99.90
3638;DHT22;1835;50.068;8.154;2023-03-31T06:48:41;10.60;99.90
3638;DHT22;1835;50.068;8.154;2023-03-31T06:51:09;10.50;99.90
3638;DHT22;1835;50.068;8.154;2023-03-31T06:53:39;10.80;99.90
3638;DHT22;1835;50.068;8.154;2023-03-31T06:56:08;10.80;99.90
3638;DHT22;1835;50.068;8.154;2023-03-31T06:58:36;10.70;99.90
3638;DHT22;1835;50.068;8.154;2023-03-31T07:01:04;10.50;99.90
3638;DHT22;1835;50.068;8.154;2023-03-31T07:03:34;10.60;99.90
3638;DHT22;1835;50.068;8.154;2023-03-31T07:06:02;10.30;99.90
3638;DHT22;1835;50.068;8.154;2023-03-31T07:08:30;10.40;99.90
3638;DHT22;1835;50.068;8.154;2023-03-31T07:11:00;10.60;99.90
3638;DHT22;1835;50.068;8.154;2023-03-31T07:13:28;10.60;99.90
3638;DHT22;1835;50.068;8.154;2023-03-31T07:15:56;10.80;99.90
3638;DHT22;1835;50.068;8.154;2023-03-31T07:18:25;10.60;99.90
3638;DHT22;1835;50.068;8.154;2023-03-31T07:21:00;10.50;99.90
3638;DHT22;1835;50.068;8.154;2023-03-31T07:23:34;10.50;99.90
3638;DHT22;1835;50.068;8.154;2023-03-31T07:26:03;10.40;99.90
3638;DHT22;1835;50.068;8.154;2023-03-31T07:28:32;10.40;99.90
3638;DHT22;1835;50.068;8.154;2023-03-31T07:31:00;10.50;99.90
3638;DHT22;1835;50.068;8.154;2023-03-31T07:33:28;10.70;99.90
3638;DHT22;1835;50.068;8.154;2023-03-31T07:35:56;10.80;99.90
3638;DHT22;1835;50.068;8.154;2023-03-31T07:38:38;11.00;99.90
3638;DHT22;1835;50.068;8.154;2023-03-31T07:41:10;11.00;99.90
3638;DHT22;1835;50.068;8.154;2023-03-31T07:43:39;11.20;99.90
3638;DHT22;1835;50.068;8.154;2023-03-31T07:46:16;11.40;99.90
3638;DHT22;1835;50.068;8.154;2023-03-31T07:48:46;11.50;99.90
3638;DHT22;1835;50.068;8.154;2023-03-31T07:51:17;11.60;99.90
3638;DHT22;1835;50.068;8.154;2023-03-31T07:53:47;11.60;99.90
3638;DHT22;1835;50.068;8.154;2023-03-31T07:56:20;11.80;99.90
3638;DHT22;1835;50.068;8.154;2023-03-31T07:58:49;12.90;99.90
3638;DHT22;1835;50.068;8.154;2023-03-31T08:01:21;14.60;99.90
3638;DHT22;1835;50.068;8.154;2023-03-31T08:03:52;15.00;99.90
3638;DHT22;1835;50.068;8.154;2023-03-31T08:06:23;14.90;99.90
3638;DHT22;1835;50.068;8.154;2023-03-31T08:08:51;15.60;99.90
3638;DHT22;1835;50.068;8.154;2023-03-31T08:11:21;16.10;99.90
3638;DHT22;1835;50.068;8.154;2023-03-31T08:13:50;16.60;99.90
3638;DHT22;1835;50.068;8.154;2023-03-31T08:16:19;16.20;99.90
3638;DHT22;1835;50.068;8.154;2023-03-31T08:18:47;15.60;99.90
3638;DHT22;1835;50.068;8.154;2023-03-31T08:21:15;15.40;99.90
3638;DHT22;1835;50.068;8.154;2023-03-31T08:23:51;15.40;99.90
3638;DHT22;1835;50.068;8.154;2023-03-31T08:26:22;15.00;99.90
3638;DHT22;1835;50.068;8.154;2023-03-31T08:28:51;14.90;99.90
3638;DHT22;1835;50.068;8.154;2023-03-31T08:31:20;14.40;99.90
3638;DHT22;1835;50.068;8.154;2023-03-31T08:33:52;14.30;99.90
3638;DHT22;1835;50.068;8.154;2023-03-31T08:36:20;14.20;99.90
3638;DHT22;1835;50.068;8.154;2023-03-31T08:38:48;13.70;99.90
3638;DHT22;1835;50.068;8.154;2023-03-31T08:44:15;13.10;99.90
3638;DHT22;1835;50.068;8.154;2023-03-31T08:46:46;13.30;99.90
3638;DHT22;1835;50.068;8.154;2023-03-31T08:49:17;13.10;99.90
3638;DHT22;1835;50.068;8.154;2023-03-31T08:51:49;13.00;99.90
3638;DHT22;1835;50.068;8.154;2023-03-31T08:54:24;13.00;99.90
3638;DHT22;1835;50.068;8.154;2023-03-31T08:57:00;13.60;99.90
3638;DHT22;1835;50.068;8.154;2023-03-31T08:59:30;14.30;99.90
3638;DHT22;1835;50.068;8.154;2023-03-31T09:02:08;15.80;99.90
3638;DHT22;1835;50.068;8.154;2023-03-31T09:05:10;17.10;99.90
3638;DHT22;1835;50.068;8.154;2023-03-31T09:07:57;18.30;99.90
3638;DHT22;1835;50.068;8.154;2023-03-31T09:10:37;19.00;99.90
3638;DHT22;1835;50.068;8.154;2023-03-31T09:13:35;20.30;99.90
3638;DHT22;1835;50.068;8.154;2023-03-31T09:16:23;20.20;99.90
3638;DHT22;1835;50.068;8.154;2023-03-31T09:18:58;21.10;99.90
3638;DHT22;1835;50.068;8.154;2023-03-31T09:21:30;20.80;99.90
3638;DHT22;1835;50.068;8.154;2023-03-31T09:24:04;19.80;99.90
3638;DHT22;1835;50.068;8.154;2023-03-31T09:26:38;19.00;99.90
3638;DHT22;1835;50.068;8.154;2023-03-31T09:29:14;18.20;99.90
3638;DHT22;1835;50.068;8.154;2023-03-31T09:31:45;17.30;99.90
3638;DHT22;1835;50.068;8.154;2023-03-31T09:34:16;16.50;99.90
3638;DHT22;1835;50.068;8.154;2023-03-31T09:36:48;16.10;99.90
3638;DHT22;1835;50.068;8.154;2023-03-31T09:39:16;16.00;99.90
3638;DHT22;1835;50.068;8.154;2023-03-31T09:41:46;15.80;99.90
3638;DHT22;1835;50.068;8.154;2023-03-31T09:44:25;15.80;99.90
3638;DHT22;1835;50.068;8.154;2023-03-31T09:46:54;15.60;99.90
3638;DHT22;1835;50.068;8.154;2023-03-31T09:49:26;15.20;99.90
3638;DHT22;1835;50.068;8.154;2023-03-31T09:52:02;15.10;99.90
3638;DHT22;1835;50.068;8.154;2023-03-31T09:54:36;15.10;99.90
3638;DHT22;1835;50.068;8.154;2023-03-31T09:57:13;14.90;99.90
3638;DHT22;1835;50.068;8.154;2023-03-31T09:59:49;15.10;99.90
3638;DHT22;1835;50.068;8.154;2023-03-31T10:02:32;14.80;99.90
3638;DHT22;1835;50.068;8.154;2023-03-31T10:05:04;14.70;99.90
3638;DHT22;1835;50.068;8.154;2023-03-31T10:07:34;14.60;99.90
3638;DHT22;1835;50.068;8.154;2023-03-31T10:10:02;14.30;99.90
3638;DHT22;1835;50.068;8.154;2023-03-31T10:12:41;14.00;99.90
3638;DHT22;1835;50.068;8.154;2023-03-31T10:15:21;13.70;99.90
3638;DHT22;1835;50.068;8.154;2023-03-31T10:17:53;13.70;99.90
3638;DHT22;1835;50.068;8.154;2023-03-31T10:20:31;13.70;99.90
3638;DHT22;1835;50.068;8.154;2023-03-31T10:23:05;13.40;99.90
3638;DHT22;1835;50.068;8.154;2023-03-31T10:25:43;12.80;99.90
3638;DHT22;1835;50.068;8.154;2023-03-31T10:28:16;13.00;99.90
3638;DHT22;1835;50.068;8.154;2023-03-31T10:30:49;13.00;99.90
3638;DHT22;1835;50.068;8.154;2023-03-31T10:33:21;12.90;99.90
3638;DHT22;1835;50.068;8.154;2023-03-31T10:35:55;12.90;99.90
3638;DHT22;1835;50.068;8.154;2023-03-31T10:38:26;12.70;99.90
3638;DHT22;1835;50.068;8.154;2023-03-31T10:40:57;12.80;99.90
3638;DHT22;1835;50.068;8.154;2023-03-31T10:43:27;13.00;99.90
3638;DHT22;1835;50.068;8.154;2023-03-31T10:45:58;13.20;99.90
3638;DHT22;1835;50.068;8.154;2023-03-31T10:48:28;13.90;99.90
3638;DHT22;1835;50.068;8.154;2023-03-31T10:51:04;15.10;99.90
3638;DHT22;1835;50.068;8.154;2023-03-31T10:53:42;16.40;99.90
3638;DHT22;1835;50.068;8.154;2023-03-31T10:59:13;18.20;99.90
3638;DHT22;1835;50.068;8.154;2023-03-31T11:02:02;18.70;99.90
3638;DHT22;1835;50.068;8.154;2023-03-31T11:04:57;18.60;99.90
3638;DHT22;1835;50.068;8.154;2023-03-31T11:07:51;18.20;99.90
3638;DHT22;1835;50.068;8.154;2023-03-31T11:10:36;18.00;99.90
3638;DHT22;1835;50.068;8.154;2023-03-31T11:13:25;17.40;99.90
3638;DHT22;1835;50.068;8.154;2023-03-31T11:16:08;17.30;99.90
3638;DHT22;1835;50.068;8.154;2023-03-31T11:18:54;16.80;99.90
3638;DHT22;1835;50.068;8.154;2023-03-31T11:21:37;16.60;99.90
3638;DHT22;1835;50.068;8.154;2023-03-31T11:24:26;16.20;99.90
3638;DHT22;1835;50.068;8.154;2023-03-31T11:27:08;15.60;99.90
3638;DHT22;1835;50.068;8.154;2023-03-31T11:29:56;15.70;99.90
3638;DHT22;1835;50.068;8.154;2023-03-31T11:32:42;15.40;99.90
3638;DHT22;1835;50.068;8.154;2023-03-31T11:35:29;15.10;99.90
3638;DHT22;1835;50.068;8.154;2023-03-31T11:38:29;15.20;99.90
3638;DHT22;1835;50.068;8.154;2023-03-31T11:41:03;15.20;99.90
3638;DHT22;1835;50.068;8.154;2023-03-31T11:43:38;15.20;99.90
3638;DHT22;1835;50.068;8.154;2023-03-31T11:46:13;15.40;99.90
3638;DHT22;1835;50.068;8.154;2023-03-31T11:48:45;15.50;99.90
3638;DHT22;1835;50.068;8.154;2023-03-31T11:51:19;15.40;99.90
3638;DHT22;1835;50.068;8.154;2023-03-31T11:53:51;15.20;99.90
3638;DHT22;1835;50.068;8.154;2023-03-31T11:56:22;15.20;99.90
3638;DHT22;1835;50.068;8.154;2023-03-31T11:58:53;15.10;99.90
3638;DHT22;1835;50.068;8.154;2023-03-31T12:01:24;14.90;99.90
3638;DHT22;1835;50.068;8.154;2023-03-31T12:04:01;14.40;99.90
3638;DHT22;1835;50.068;8.154;2023-03-31T12:06:38;14.10;99.90
3638;DHT22;1835;50.068;8.154;2023-03-31T12:09:14;14.10;99.90
3638;DHT22;1835;50.068;8.154;2023-03-31T12:11:52;14.10;99.90
3638;DHT22;1835;50.068;8.154;2023-03-31T12:14:28;13.90;99.90
3638;DHT22;1835;50.068;8.154;2023-03-31T12:17:03;13.70;99.90
3638;DHT22;1835;50.068;8.154;2023-03-31T12:19:43;13.60;99.90
3638;DHT22;1835;50.068;8.154;2023-03-31T12:22:17;13.80;99.90
3638;DHT22;1835;50.068;8.154;2023-03-31T12:24:47;13.70;99.90
3638;DHT22;1835;50.068;8.154;2023-03-31T12:27:18;13.70;99.90
3638;DHT22;1835;50.068;8.154;2023-03-31T12:29:54;13.90;99.90
3638;DHT22;1835;50.068;8.154;2023-03-31T12:32:27;14.20;99.90
3638;DHT22;1835;50.068;8.154;2023-03-31T12:34:59;14.40;99.90
3638;DHT22;1835;50.068;8.154;2023-03-31T12:37:52;14.50;99.90
3638;DHT22;1835;50.068;8.154;2023-03-31T12:40:45;14.80;99.90
3638;DHT22;1835;50.068;8.154;2023-03-31T12:46:41;14.90;99.90
3638;DHT22;1835;50.068;8.154;2023-03-31T12:49:31;14.90;99.90
3638;DHT22;1835;50.068;8.154;2023-03-31T12:52:06;14.80;99.90
3638;DHT22;1835;50.068;8.154;2023-03-31T12:55:09;14.70;99.90
3638;DHT22;1835;50.068;8.154;2023-03-31T12:57:47;14.90;99.90
3638;DHT22;1835;50.068;8.154;2023-03-31T13:00:21;15.00;99.90
3638;DHT22;1835;50.068;8.154;2023-03-31T13:03:34;15.20;99.90
3638;DHT22;1835;50.068;8.154;2023-03-31T13:09:41;15.60;99.90
3638;DHT22;1835;50.068;8.154;2023-03-31T13:12:17;15.60;99.90
3638;DHT22;1835;50.068;8.154;2023-03-31T13:14:48;15.40;99.90
3638;DHT22;1835;50.068;8.154;2023-03-31T13:17:25;15.50;99.90
3638;DHT22;1835;50.068;8.154;2023-03-31T13:19:56;15.10;99.90
3638;DHT22;1835;50.068;8.154;2023-03-31T13:22:45;15.00;99.90
3638;DHT22;1835;50.068;8.154;2023-03-31T13:28:39;15.20;99.90
3638;DHT22;1835;50.068;8.154;2023-03-31T13:31:09;15.10;99.90
3638;DHT22;1835;50.068;8.154;2023-03-31T13:33:48;15.00;99.90
3638;DHT22;1835;50.068;8.154;2023-03-31T13:40:06;15.20;99.90
3638;DHT22;1835;50.068;8.154;2023-03-31T13:43:13;15.30;99.90
3638;DHT22;1835;50.068;8.154;2023-03-31T13:46:33;15.20;99.90
3638;DHT22;1835;50.068;8.154;2023-03-31T13:49:26;15.10;99.90
3638;DHT22;1835;50.068;8.154;2023-03-31T13:52:10;15.30;99.90
3638;DHT22;1835;50.068;8.154;2023-03-31T13:55:11;15.20;99.90
3638;DHT22;1835;50.068;8.154;2023-03-31T14:01:35;15.10;99.90
3638;DHT22;1835;50.068;8.154;2023-03-31T14:05:22;15.10;99.90
3638;DHT22;1835;50.068;8.154;2023-03-31T14:07:54;14.90;99.90
3638;DHT22;1835;50.068;8.154;2023-03-31T14:10:29;15.00;99.90
3638;DHT22;1835;50.068;8.154;2023-03-31T14:13:06;14.80;99.90
3638;DHT22;1835;50.068;8.154;2023-03-31T14:15:39;15.00;99.90
3638;DHT22;1835;50.068;8.154;2023-03-31T14:18:13;15.10;99.90
3638;DHT22;1835;50.068;8.154;2023-03-31T14:20:59;15.10;99.90
3638;DHT22;1835;50.068;8.154;2023-03-31T14:23:45;15.10;99.90
3638;DHT22;1835;50.068;8.154;2023-03-31T14:26:29;15.00;99.90
3638;DHT22;1835;50.068;8.154;2023-03-31T14:29:11;15.00;99.90
3638;DHT22;1835;50.068;8.154;2023-03-31T14:31:48;15.10;99.90
3638;DHT22;1835;50.068;8.154;2023-03-31T14:34:38;15.10;99.90
3638;DHT22;1835;50.068;8.154;2023-03-31T14:37:18;14.90;99.90
3638;DHT22;1835;50.068;8.154;2023-03-31T14:39:49;15.00;99.90
3638;DHT22;1835;50.068;8.154;2023-03-31T14:42:22;14.70;99.90
3638;DHT22;1835;50.068;8.154;2023-03-31T14:44:55;14.90;99.90
3638;DHT22;1835;50.068;8.154;2023-03-31T14:47:26;14.60;99.90
3638;DHT22;1835;50.068;8.154;2023-03-31T14:49:59;13.90;99.90
3638;DHT22;1835;50.068;8.154;2023-03-31T14:52:30;14.00;99.90
3638;DHT22;1835;50.068;8.154;2023-03-31T14:54:59;14.10;99.90
3638;DHT22;1835;50.068;8.154;2023-03-31T14:57:29;14.00;99.90
3638;DHT22;1835;50.068;8.154;2023-03-31T15:00:02;13.90;99.90
3638;DHT22;1835;50.068;8.154;2023-03-31T15:02:36;13.90;99.90
3638;DHT22;1835;50.068;8.154;2023-03-31T15:05:09;14.00;99.90
3638;DHT22;1835;50.068;8.154;2023-03-31T15:07:48;14.10;99.90
3638;DHT22;1835;50.068;8.154;2023-03-31T15:10:18;14.10;99.90
3638;DHT22;1835;50.068;8.154;2023-03-31T15:12:48;14.10;99.90
3638;DHT22;1835;50.068;8.154;2023-03-31T15:15:19;14.00;99.90
3638;DHT22;1835;50.068;8.154;2023-03-31T15:17:48;14.00;99.90
3638;DHT22;1835;50.068;8.154;2023-03-31T15:20:26;14.00;99.90
3638;DHT22;1835;50.068;8.154;2023-03-31T15:22:57;13.90;99.90
3638;DHT22;1835;50.068;8.154;2023-03-31T15:25:30;13.90;99.90
3638;DHT22;1835;50.068;8.154;2023-03-31T15:28:02;14.00;99.90
3638;DHT22;1835;50.068;8.154;2023-03-31T15:30:32;14.10;99.90
3638;DHT22;1835;50.068;8.154;2023-03-31T15:33:05;14.00;99.90
3638;DHT22;1835;50.068;8.154;2023-03-31T15:35:45;13.90;99.90
3638;DHT22;1835;50.068;8.154;2023-03-31T15:38:14;13.80;99.90
3638;DHT22;1835;50.068;8.154;2023-03-31T15:40:48;14.00;99.90
3638;DHT22;1835;50.068;8.154;2023-03-31T15:43:27;14.00;99.90
3638;DHT22;1835;50.068;8.154;2023-03-31T15:45:57;14.00;99.90
3638;DHT22;1835;50.068;8.154;2023-03-31T15:48:31;13.90;99.90
3638;DHT22;1835;50.068;8.154;2023-03-31T15:51:02;14.00;99.90
3638;DHT22;1835;50.068;8.154;2023-03-31T15:53:36;14.00;99.90
3638;DHT22;1835;50.068;8.154;2023-03-31T15:56:05;14.00;99.90
3638;DHT22;1835;50.068;8.154;2023-03-31T15:59:01;13.90;99.90
3638;DHT22;1835;50.068;8.154;2023-03-31T16:01:31;14.00;99.90
3638;DHT22;1835;50.068;8.154;2023-03-31T16:04:05;13.80;99.90
3638;DHT22;1835;50.068;8.154;2023-03-31T16:06:43;13.80;99.90
3638;DHT22;1835;50.068;8.154;2023-03-31T16:09:15;13.90;99.90
3638;DHT22;1835;50.068;8.154;2023-03-31T16:11:47;13.70;99.90
3638;DHT22;1835;50.068;8.154;2023-03-31T16:14:19;13.80;99.90
3638;DHT22;1835;50.068;8.154;2023-03-31T16:16:53;13.60;99.90
3638;DHT22;1835;50.068;8.154;2023-03-31T16:19:28;13.40;99.90
3638;DHT22;1835;50.068;8.154;2023-03-31T16:21:59;13.50;99.90
3638;DHT22;1835;50.068;8.154;2023-03-31T16:24:31;13.20;99.90
3638;DHT22;1835;50.068;8.154;2023-03-31T16:27:01;13.10;99.90
3638;DHT22;1835;50.068;8.154;2023-03-31T16:29:32;13.10;99.90
3638;DHT22;1835;50.068;8.154;2023-03-31T16:32:07;13.50;99.90
3638;DHT22;1835;50.068;8.154;2023-03-31T16:35:03;13.40;99.90
3638;DHT22;1835;50.068;8.154;2023-03-31T16:37:32;13.40;99.90
3638;DHT22;1835;50.068;8.154;2023-03-31T16:40:01;13.50;99.90
3638;DHT22;1835;50.068;8.154;2023-03-31T16:42:31;13.70;99.90
3638;DHT22;1835;50.068;8.154;2023-03-31T16:44:59;13.70;99.90
3638;DHT22;1835;50.068;8.154;2023-03-31T16:47:40;13.70;99.90
3638;DHT22;1835;50.068;8.154;2023-03-31T16:50:12;13.70;99.90
3638;DHT22;1835;50.068;8.154;2023-03-31T16:52:42;13.70;99.90
3638;DHT22;1835;50.068;8.154;2023-03-31T16:55:11;13.50;99.90
3638;DHT22;1835;50.068;8.154;2023-03-31T16:57:39;13.50;99.90
3638;DHT22;1835;50.068;8.154;2023-03-31T17:00:08;13.40;99.90
3638;DHT22;1835;50.068;8.154;2023-03-31T17:02:37;13.40;99.90
3638;DHT22;1835;50.068;8.154;2023-03-31T17:05:05;13.40;99.90
3638;DHT22;1835;50.068;8.154;2023-03-31T17:07:41;13.40;99.90
3638;DHT22;1835;50.068;8.154;2023-03-31T17:10:09;13.40;99.90
3638;DHT22;1835;50.068;8.154;2023-03-31T17:12:39;13.30;99.90
3638;DHT22;1835;50.068;8.154;2023-03-31T17:15:08;13.10;99.90
3638;DHT22;1835;50.068;8.154;2023-03-31T17:17:37;13.20;99.90